Time,TemperatureF,DewpointF,PressureIn,WindDirection,WindDirectionDegrees,WindSpeedMPH,WindSpeedGustMPH,Humidity,HourlyPrecipIn,Conditions,Clouds,dailyrainin,SoftwareType,DateUTC
2013-01-30 00:00:00,56.2,53.8,29.44,SSE,158,10.5,11.4,92,0.00,,,0.79,WUHU216HW,2013-01-30 05:00:00,
2013-01-30 00:02:00,56.2,53.8,29.44,South,180,11.6,11.6,92,0.00,,,0.00,WUHU216HW,2013-01-30 05:02:00,
2013-01-30 00:03:00,56.2,53.8,29.44,SSE,158,10.5,11.4,92,0.00,,,0.79,WUHU216HW,2013-01-30 05:03:00,
2013-01-30 00:08:00,56.2,53.8,29.43,South,180,11.4,12.1,92,0.00,,,0.00,WUHU216HW,2013-01-30 05:08:00,
2013-01-30 00:13:00,56.2,53.8,29.43,SSW,203,7.8,12.1,92,0.00,,,0.00,WUHU216HW,2013-01-30 05:13:00,
2013-01-30 00:18:00,56.2,53.8,29.43,SSW,203,3.4,12.1,92,0.00,,,0.00,WUHU216HW,2013-01-30 05:18:00,
2013-01-30 00:23:00,56.2,53.8,29.42,SSE,158,9.2,12.1,92,0.00,,,0.00,WUHU216HW,2013-01-30 05:23:00,
2013-01-30 00:28:00,56.0,53.6,29.42,South,180,4.9,12.1,92,0.00,,,0.00,WUHU216HW,2013-01-30 05:28:00,
2013-01-30 00:33:00,56.0,53.6,29.41,SE,135,3.4,12.1,92,0.00,,,0.00,WUHU216HW,2013-01-30 05:33:00,
2013-01-30 00:38:00,55.8,53.5,29.41,SSW,203,5.4,9.6,92,0.00,,,0.00,WUHU216HW,2013-01-30 05:38:00,
2013-01-30 00:43:00,55.8,53.5,29.40,South,180,4.0,9.6,92,0.00,,,0.00,WUHU216HW,2013-01-30 05:43:00,
2013-01-30 00:48:00,55.6,53.3,29.39,South,180,1.8,8.3,92,0.00,,,0.00,WUHU216HW,2013-01-30 05:48:00,
2013-01-30 00:53:00,55.6,53.3,29.38,SSW,203,1.3,7.8,92,0.00,,,0.00,WUHU216HW,2013-01-30 05:53:00,
2013-01-30 00:58:00,55.6,53.3,29.38,SSW,203,8.3,8.3,92,0.00,,,0.00,WUHU216HW,2013-01-30 05:58:00,
2013-01-30 01:03:00,55.4,53.1,29.37,SSW,203,9.2,9.2,92,0.00,,,0.00,WUHU216HW,2013-01-30 06:03:00,
2013-01-30 01:08:00,55.4,53.1,29.37,South,180,4.5,9.2,92,0.00,,,0.00,WUHU216HW,2013-01-30 06:08:00,
2013-01-30 01:13:00,55.4,53.1,29.36,East,90,4.3,9.2,92,0.00,,,0.00,WUHU216HW,2013-01-30 06:13:00,
2013-01-30 01:18:00,55.4,53.1,29.36,SSW,203,2.0,8.1,92,0.00,,,0.00,WUHU216HW,2013-01-30 06:18:00,
2013-01-30 01:23:00,55.4,53.1,29.35,South,180,4.9,8.1,92,0.00,,,0.00,WUHU216HW,2013-01-30 06:23:00,
2013-01-30 01:28:00,55.4,53.5,29.34,SE,135,4.7,7.6,93,0.01,,,0.01,WUHU216HW,2013-01-30 06:28:00,
2013-01-30 01:33:00,55.4,53.1,29.34,South,180,5.6,7.4,92,0.01,,,0.01,WUHU216HW,2013-01-30 06:33:00,
2013-01-30 01:38:00,55.4,53.5,29.33,SSE,158,4.7,10.5,93,0.01,,,0.01,WUHU216HW,2013-01-30 06:38:00,
2013-01-30 01:43:00,55.4,53.5,29.33,SSE,158,7.8,10.5,93,0.01,,,0.01,WUHU216HW,2013-01-30 06:43:00,
2013-01-30 01:48:00,55.6,53.7,29.32,SSE,158,4.0,10.5,93,0.01,,,0.01,WUHU216HW,2013-01-30 06:48:00,
2013-01-30 01:53:00,55.8,53.8,29.32,ESE,113,5.4,11.9,93,0.01,,,0.01,WUHU216HW,2013-01-30 06:53:00,
2013-01-30 01:58:00,55.8,53.8,29.32,SSE,158,7.6,11.9,93,0.01,,,0.01,WUHU216HW,2013-01-30 06:58:00,
2013-01-30 02:03:00,56.0,54.0,29.31,SSW,203,9.2,10.7,93,0.01,,,0.01,WUHU216HW,2013-01-30 07:03:00,
2013-01-30 02:08:00,56.2,54.2,29.30,South,180,3.4,10.7,93,0.01,,,0.01,WUHU216HW,2013-01-30 07:08:00,
2013-01-30 02:13:00,56.2,54.2,29.29,South,180,4.9,11.4,93,0.01,,,0.01,WUHU216HW,2013-01-30 07:13:00,
2013-01-30 02:18:00,56.3,54.4,29.29,WSW,248,8.7,11.4,93,0.02,,,0.02,WUHU216HW,2013-01-30 07:18:00,
2013-01-30 02:23:00,56.3,54.4,29.29,SSW,203,6.3,9.2,93,0.02,,,0.02,WUHU216HW,2013-01-30 07:23:00,
2013-01-30 02:28:00,56.5,54.6,29.28,SSW,203,5.8,10.5,93,0.01,,,0.02,WUHU216HW,2013-01-30 07:28:00,
2013-01-30 02:33:00,56.5,54.8,29.28,South,180,8.5,10.5,94,0.01,,,0.02,WUHU216HW,2013-01-30 07:33:00,
2013-01-30 02:38:00,56.9,54.9,29.28,SSE,158,7.8,9.8,93,0.01,,,0.02,WUHU216HW,2013-01-30 07:38:00,
2013-01-30 02:43:00,57.1,55.1,29.27,SSW,203,8.1,12.1,93,0.01,,,0.02,WUHU216HW,2013-01-30 07:43:00,
2013-01-30 02:48:00,57.2,55.3,29.28,South,180,5.6,12.1,93,0.01,,,0.02,WUHU216HW,2013-01-30 07:48:00,
2013-01-30 02:53:00,57.4,55.5,29.29,SW,225,13.4,13.4,93,0.01,,,0.02,WUHU216HW,2013-01-30 07:53:00,
2013-01-30 02:58:00,57.6,55.6,29.28,SSE,158,10.5,13.4,93,0.03,,,0.04,WUHU216HW,2013-01-30 07:58:00,
2013-01-30 03:03:00,58.0,56.0,29.27,SE,135,6.9,13.4,93,0.03,,,0.04,WUHU216HW,2013-01-30 08:03:00,
2013-01-30 03:08:00,58.0,56.0,29.27,WSW,248,8.5,13.4,93,0.03,,,0.04,WUHU216HW,2013-01-30 08:08:00,
2013-01-30 03:13:00,58.1,56.2,29.27,SW,225,11.0,12.8,93,0.03,,,0.05,WUHU216HW,2013-01-30 08:13:00,
2013-01-30 03:18:00,58.3,56.4,29.26,SSW,203,12.8,13.0,93,0.03,,,0.05,WUHU216HW,2013-01-30 08:18:00,
2013-01-30 03:23:00,58.5,56.2,29.27,WSW,248,10.1,13.0,92,0.03,,,0.05,WUHU216HW,2013-01-30 08:23:00,
2013-01-30 03:28:00,58.5,56.2,29.28,SW,225,8.1,13.4,92,0.05,,,0.07,WUHU216HW,2013-01-30 08:28:00,
2013-01-30 03:33:00,58.5,56.2,29.29,WSW,248,6.5,13.4,92,0.12,,,0.14,WUHU216HW,2013-01-30 08:33:00,
2013-01-30 03:38:00,58.0,55.6,29.30,WNW,293,7.8,13.6,92,0.17,,,0.19,WUHU216HW,2013-01-30 08:38:00,
2013-01-30 03:43:00,57.2,54.6,29.30,West,270,9.8,13.6,91,0.18,,,0.20,WUHU216HW,2013-01-30 08:43:00,
2013-01-30 03:48:00,56.5,53.9,29.31,West,270,5.6,12.8,91,0.19,,,0.21,WUHU216HW,2013-01-30 08:48:00,
2013-01-30 03:53:00,55.8,53.2,29.31,WNW,293,6.3,10.5,91,0.19,,,0.22,WUHU216HW,2013-01-30 08:53:00,
2013-01-30 03:58:00,55.3,52.7,29.31,WNW,293,13.0,13.0,91,0.18,,,0.22,WUHU216HW,2013-01-30 08:58:00,
2013-01-30 04:03:00,54.9,52.6,29.31,WNW,293,5.4,13.0,92,0.18,,,0.22,WUHU216HW,2013-01-30 09:03:00,
2013-01-30 04:08:00,54.5,52.2,29.31,NNW,338,3.8,8.9,92,0.17,,,0.22,WUHU216HW,2013-01-30 09:08:00,
2013-01-30 04:13:00,54.2,51.8,29.30,NW,315,2.0,8.3,92,0.17,,,0.22,WUHU216HW,2013-01-30 09:13:00,
2013-01-30 04:18:00,54.0,51.7,29.30,West,270,5.6,11.0,92,0.17,,,0.22,WUHU216HW,2013-01-30 09:18:00,
2013-01-30 04:23:00,53.6,51.3,29.30,NW,315,4.3,11.0,92,0.17,,,0.22,WUHU216HW,2013-01-30 09:23:00,
2013-01-30 04:28:00,53.3,50.9,29.30,West,270,2.5,5.6,92,0.13,,,0.22,WUHU216HW,2013-01-30 09:28:00,
2013-01-30 04:33:00,53.1,50.8,29.30,WNW,293,2.9,4.9,92,0.05,,,0.22,WUHU216HW,2013-01-30 09:33:00,
2013-01-30 04:38:00,52.9,50.6,29.31,NW,315,2.5,4.7,92,0.02,,,0.22,WUHU216HW,2013-01-30 09:38:00,
2013-01-30 04:43:00,52.6,50.2,29.31,West,270,1.8,4.0,92,0.02,,,0.22,WUHU216HW,2013-01-30 09:43:00,
2013-01-30 04:48:00,52.4,50.0,29.31,WNW,293,2.7,4.0,92,0.00,,,0.22,WUHU216HW,2013-01-30 09:48:00,
2013-01-30 04:53:00,52.2,49.9,29.30,West,270,2.0,4.0,92,0.00,,,0.22,WUHU216HW,2013-01-30 09:53:00,
2013-01-30 04:58:00,52.2,49.9,29.31,WNW,293,1.6,2.7,92,0.00,,,0.22,WUHU216HW,2013-01-30 09:58:00,
2013-01-30 05:03:00,52.0,49.7,29.31,West,270,1.3,2.7,92,0.00,,,0.22,WUHU216HW,2013-01-30 10:03:00,
2013-01-30 05:08:00,51.8,49.5,29.31,West,270,1.3,2.2,92,0.00,,,0.22,WUHU216HW,2013-01-30 10:08:00,
2013-01-30 05:13:00,51.7,49.1,29.31,WNW,293,1.3,1.8,91,0.00,,,0.22,WUHU216HW,2013-01-30 10:13:00,
2013-01-30 05:18:00,51.5,48.9,29.31,WNW,293,1.3,2.2,91,0.00,,,0.22,WUHU216HW,2013-01-30 10:18:00,
2013-01-30 05:23:00,51.5,48.9,29.32,WSW,248,2.9,2.9,91,0.00,,,0.22,WUHU216HW,2013-01-30 10:23:00,
2013-01-30 05:28:00,51.3,48.7,29.33,West,270,2.9,3.4,91,0.00,,,0.22,WUHU216HW,2013-01-30 10:28:00,
2013-01-30 05:33:00,51.1,48.8,29.34,West,270,5.8,5.8,92,0.00,,,0.22,WUHU216HW,2013-01-30 10:33:00,
2013-01-30 05:38:00,50.9,48.6,29.34,WSW,248,4.9,5.8,92,0.00,,,0.22,WUHU216HW,2013-01-30 10:38:00,
2013-01-30 05:43:00,50.9,48.6,29.34,WSW,248,2.2,5.6,92,0.00,,,0.22,WUHU216HW,2013-01-30 10:43:00,
2013-01-30 05:48:00,50.8,48.4,29.34,WNW,293,2.2,5.6,92,0.00,,,0.22,WUHU216HW,2013-01-30 10:48:00,
2013-01-30 05:53:00,50.8,48.4,29.34,SW,225,2.0,4.3,92,0.00,,,0.22,WUHU216HW,2013-01-30 10:53:00,
2013-01-30 05:58:00,50.8,48.4,29.34,SW,225,2.2,4.3,92,0.00,,,0.22,WUHU216HW,2013-01-30 10:58:00,
2013-01-30 06:03:00,50.6,48.2,29.33,WSW,248,1.6,3.6,92,0.00,,,0.22,WUHU216HW,2013-01-30 11:03:00,
2013-01-30 06:08:00,50.6,48.2,29.32,West,270,1.1,2.7,92,0.00,,,0.22,WUHU216HW,2013-01-30 11:08:00,
2013-01-30 06:13:00,50.4,48.1,29.32,SSW,203,1.1,2.2,92,0.00,,,0.22,WUHU216HW,2013-01-30 11:13:00,
2013-01-30 06:18:00,50.2,47.9,29.32,NNW,338,0.0,1.6,92,0.00,,,0.22,WUHU216HW,2013-01-30 11:18:00,
2013-01-30 06:23:00,50.2,47.9,29.32,West,270,0.4,1.1,92,0.00,,,0.22,WUHU216HW,2013-01-30 11:23:00,
2013-01-30 06:28:00,50.0,47.7,29.32,SSW,203,1.3,1.3,92,0.00,,,0.22,WUHU216HW,2013-01-30 11:28:00,
2013-01-30 06:33:00,49.9,47.6,29.32,SSW,203,0.2,1.3,92,0.00,,,0.22,WUHU216HW,2013-01-30 11:33:00,
2013-01-30 06:38:00,49.7,47.4,29.31,SSW,203,0.0,1.3,92,0.00,,,0.22,WUHU216HW,2013-01-30 11:38:00,
2013-01-30 06:43:00,49.5,47.3,29.30,SE,135,0.2,0.2,92,0.00,,,0.22,WUHU216HW,2013-01-30 11:43:00,
2013-01-30 06:48:00,49.3,47.1,29.29,ESE,113,0.0,1.3,92,0.01,,,0.23,WUHU216HW,2013-01-30 11:48:00,
2013-01-30 06:53:00,49.3,47.1,29.30,SW,225,0.0,1.3,92,0.01,,,0.23,WUHU216HW,2013-01-30 11:53:00,
2013-01-30 06:58:00,49.1,46.9,29.30,SW,225,0.7,1.1,92,0.01,,,0.23,WUHU216HW,2013-01-30 11:58:00,
2013-01-30 07:03:00,49.0,46.7,29.30,SW,225,0.4,1.1,92,0.01,,,0.23,WUHU216HW,2013-01-30 12:03:00,
2013-01-30 07:08:00,48.6,46.5,29.30,ESE,113,1.3,1.3,92,0.01,,,0.23,WUHU216HW,2013-01-30 12:08:00,
2013-01-30 07:13:00,48.6,46.5,29.29,SE,135,1.1,1.8,92,0.01,,,0.23,WUHU216HW,2013-01-30 12:13:00,
2013-01-30 07:18:00,48.2,46.1,29.30,SE,135,1.3,1.8,92,0.01,,,0.23,WUHU216HW,2013-01-30 12:18:00,
2013-01-30 07:23:00,47.9,46.0,29.29,SE,135,0.4,1.8,93,0.01,,,0.23,WUHU216HW,2013-01-30 12:23:00,
2013-01-30 07:28:00,47.9,46.0,29.29,East,90,0.0,1.6,93,0.01,,,0.23,WUHU216HW,2013-01-30 12:28:00,
2013-01-30 07:33:00,47.9,46.0,29.28,ESE,113,1.1,2.5,93,0.01,,,0.23,WUHU216HW,2013-01-30 12:33:00,
2013-01-30 07:38:00,47.7,45.8,29.29,SSW,203,0.9,2.5,93,0.01,,,0.23,WUHU216HW,2013-01-30 12:38:00,
2013-01-30 07:43:00,47.5,45.6,29.29,South,180,1.1,1.6,93,0.01,,,0.23,WUHU216HW,2013-01-30 12:43:00,
2013-01-30 07:48:00,47.5,45.6,29.29,SE,135,1.3,1.8,93,0.00,,,0.23,WUHU216HW,2013-01-30 12:48:00,
2013-01-30 07:53:00,47.7,46.1,29.26,East,90,1.8,2.7,94,0.00,,,0.23,WUHU216HW,2013-01-30 12:53:00,
2013-01-30 07:58:00,47.9,46.3,29.25,SE,135,2.2,2.7,94,0.00,,,0.23,WUHU216HW,2013-01-30 12:58:00,
2013-01-30 08:03:00,47.9,46.3,29.25,ESE,113,1.1,3.4,94,0.00,,,0.23,WUHU216HW,2013-01-30 13:03:00,
2013-01-30 08:08:00,47.9,46.3,29.25,ESE,113,1.6,3.4,94,0.00,,,0.23,WUHU216HW,2013-01-30 13:08:00,
2013-01-30 08:13:00,47.9,46.3,29.25,South,180,0.4,2.0,94,0.00,,,0.23,WUHU216HW,2013-01-30 13:13:00,
2013-01-30 08:18:00,47.7,46.1,29.24,SE,135,0.4,2.5,94,0.00,,,0.23,WUHU216HW,2013-01-30 13:18:00,
2013-01-30 08:23:00,47.7,46.1,29.23,SE,135,1.8,2.9,94,0.00,,,0.23,WUHU216HW,2013-01-30 13:23:00,
2013-01-30 08:28:00,47.7,46.1,29.24,SW,225,1.8,2.9,94,0.00,,,0.23,WUHU216HW,2013-01-30 13:28:00,
2013-01-30 08:33:00,47.9,46.3,29.26,SW,225,2.7,3.8,94,0.00,,,0.23,WUHU216HW,2013-01-30 13:33:00,
2013-01-30 08:38:00,47.9,46.3,29.28,WSW,248,2.5,3.8,94,0.00,,,0.23,WUHU216HW,2013-01-30 13:38:00,
2013-01-30 08:43:00,48.1,46.4,29.29,SW,225,1.1,3.4,94,0.00,,,0.23,WUHU216HW,2013-01-30 13:43:00,
2013-01-30 08:48:00,48.2,46.6,29.27,South,180,1.1,4.0,94,0.00,,,0.23,WUHU216HW,2013-01-30 13:48:00,
2013-01-30 08:53:00,48.2,46.6,29.26,SSE,158,1.8,4.0,94,0.00,,,0.23,WUHU216HW,2013-01-30 13:53:00,
2013-01-30 08:58:00,48.4,46.8,29.23,SE,135,0.9,2.7,94,0.00,,,0.23,WUHU216HW,2013-01-30 13:58:00,
2013-01-30 09:03:00,48.4,46.8,29.25,WSW,248,1.6,2.7,94,0.00,,,0.23,WUHU216HW,2013-01-30 14:03:00,
2013-01-30 09:08:00,48.4,46.8,29.24,SW,225,0.4,1.8,94,0.00,,,0.23,WUHU216HW,2013-01-30 14:08:00,
2013-01-30 09:13:00,48.4,46.8,29.25,SW,225,0.0,1.6,94,0.00,,,0.23,WUHU216HW,2013-01-30 14:13:00,
2013-01-30 09:18:00,48.4,46.8,29.24,SW,225,0.0,0.9,94,0.00,,,0.23,WUHU216HW,2013-01-30 14:18:00,
2013-01-30 09:23:00,48.4,46.8,29.24,ESE,113,1.3,2.0,94,0.00,,,0.23,WUHU216HW,2013-01-30 14:23:00,
2013-01-30 09:28:00,48.6,47.0,29.24,SW,225,1.3,2.0,94,0.00,,,0.23,WUHU216HW,2013-01-30 14:28:00,
2013-01-30 09:33:00,48.6,47.0,29.28,WSW,248,3.4,4.0,94,0.00,,,0.23,WUHU216HW,2013-01-30 14:33:00,
2013-01-30 09:38:00,48.8,47.2,29.28,SSW,203,3.4,4.9,94,0.00,,,0.23,WUHU216HW,2013-01-30 14:38:00,
2013-01-30 09:43:00,49.0,47.4,29.27,WSW,248,2.0,4.9,94,0.00,,,0.23,WUHU216HW,2013-01-30 14:43:00,
2013-01-30 09:48:00,49.1,47.4,29.29,West,270,3.8,5.4,94,0.00,,,0.23,WUHU216HW,2013-01-30 14:48:00,
2013-01-30 09:53:00,49.3,47.6,29.30,SSW,203,3.8,5.4,94,0.00,,,0.23,WUHU216HW,2013-01-30 14:53:00,
2013-01-30 09:58:00,49.3,47.6,29.30,WSW,248,2.7,4.5,94,0.00,,,0.23,WUHU216HW,2013-01-30 14:58:00,
2013-01-30 10:03:00,49.3,47.6,29.28,SSW,203,0.2,3.4,94,0.00,,,0.23,WUHU216HW,2013-01-30 15:03:00,
2013-01-30 10:08:00,49.3,47.6,29.27,NNE,23,0.4,3.1,94,0.00,,,0.23,WUHU216HW,2013-01-30 15:08:00,
2013-01-30 10:13:00,49.3,47.6,29.29,SSW,203,2.0,4.7,94,0.00,,,0.23,WUHU216HW,2013-01-30 15:13:00,
2013-01-30 10:18:00,49.5,48.1,29.30,WSW,248,5.1,5.1,95,0.00,,,0.23,WUHU216HW,2013-01-30 15:18:00,
2013-01-30 10:23:00,49.5,47.8,29.30,SW,225,1.6,5.1,94,0.00,,,0.23,WUHU216HW,2013-01-30 15:23:00,
2013-01-30 10:28:00,49.7,48.2,29.29,WSW,248,2.0,5.1,95,0.00,,,0.23,WUHU216HW,2013-01-30 15:28:00,
2013-01-30 10:33:00,49.9,48.4,29.31,SW,225,3.4,4.0,95,0.00,,,0.23,WUHU216HW,2013-01-30 15:33:00,
2013-01-30 10:38:00,50.0,48.6,29.32,SW,225,2.5,4.7,95,0.00,,,0.23,WUHU216HW,2013-01-30 15:38:00,
2013-01-30 10:43:00,50.0,48.6,29.32,SSW,203,5.1,5.1,95,0.00,,,0.23,WUHU216HW,2013-01-30 15:43:00,
2013-01-30 10:48:00,50.0,48.6,29.30,SSW,203,3.1,5.6,95,0.00,,,0.23,WUHU216HW,2013-01-30 15:48:00,
2013-01-30 10:53:00,50.2,48.8,29.30,South,180,4.0,5.6,95,0.00,,,0.23,WUHU216HW,2013-01-30 15:53:00,
2013-01-30 10:58:00,50.2,48.8,29.29,SSW,203,3.1,5.4,95,0.00,,,0.23,WUHU216HW,2013-01-30 15:58:00,
2013-01-30 11:03:00,50.4,49.0,29.28,SSW,203,2.5,5.4,95,0.00,,,0.23,WUHU216HW,2013-01-30 16:03:00,
2013-01-30 11:08:00,50.4,49.0,29.29,WSW,248,4.0,4.7,95,0.00,,,0.23,WUHU216HW,2013-01-30 16:08:00,
2013-01-30 11:13:00,50.6,49.1,29.29,WSW,248,4.0,4.3,95,0.00,,,0.23,WUHU216HW,2013-01-30 16:13:00,
2013-01-30 11:18:00,50.6,49.1,29.29,SE,135,4.0,6.9,95,0.00,,,0.23,WUHU216HW,2013-01-30 16:18:00,
2013-01-30 11:23:00,50.8,49.3,29.29,South,180,4.0,6.9,95,0.00,,,0.23,WUHU216HW,2013-01-30 16:23:00,
2013-01-30 11:28:00,50.9,49.5,29.28,SE,135,3.8,6.9,95,0.00,,,0.23,WUHU216HW,2013-01-30 16:28:00,
2013-01-30 11:33:00,51.5,50.0,29.27,SSW,203,3.4,6.9,95,0.00,,,0.23,WUHU216HW,2013-01-30 16:33:00,
2013-01-30 11:38:00,51.7,50.2,29.26,SSW,203,4.7,6.9,95,0.00,,,0.23,WUHU216HW,2013-01-30 16:38:00,
2013-01-30 11:43:00,51.5,50.0,29.24,SE,135,5.4,6.9,95,0.00,,,0.23,WUHU216HW,2013-01-30 16:43:00,
2013-01-30 11:48:00,51.7,50.2,29.24,South,180,3.1,7.2,95,0.00,,,0.23,WUHU216HW,2013-01-30 16:48:00,
2013-01-30 11:53:00,51.8,50.4,29.24,SSW,203,3.1,7.6,95,0.00,,,0.23,WUHU216HW,2013-01-30 16:53:00,
2013-01-30 11:58:00,52.0,50.6,29.25,SW,225,5.1,7.6,95,0.00,,,0.23,WUHU216HW,2013-01-30 16:58:00,
2013-01-30 12:03:00,52.2,50.8,29.26,SSW,203,7.2,7.2,95,0.00,,,0.23,WUHU216HW,2013-01-30 17:03:00,
2013-01-30 12:08:00,52.2,50.8,29.25,SSW,203,4.0,7.2,95,0.00,,,0.23,WUHU216HW,2013-01-30 17:08:00,
2013-01-30 12:13:00,52.4,50.9,29.25,SW,225,4.7,7.2,95,0.00,,,0.23,WUHU216HW,2013-01-30 17:13:00,
2013-01-30 12:18:00,52.6,50.9,29.25,SSW,203,3.8,6.7,94,0.00,,,0.23,WUHU216HW,2013-01-30 17:18:00,
2013-01-30 12:23:00,52.6,50.9,29.25,SSW,203,5.8,7.6,94,0.00,,,0.23,WUHU216HW,2013-01-30 17:23:00,
2013-01-30 12:28:00,52.6,50.9,29.25,South,180,6.0,7.6,94,0.00,,,0.23,WUHU216HW,2013-01-30 17:28:00,
2013-01-30 12:33:00,52.6,50.9,29.24,SW,225,7.8,9.8,94,0.00,,,0.23,WUHU216HW,2013-01-30 17:33:00,
2013-01-30 12:38:00,52.6,50.9,29.24,SW,225,2.9,9.8,94,0.00,,,0.23,WUHU216HW,2013-01-30 17:38:00,
2013-01-30 12:43:00,52.6,50.9,29.22,SSW,203,2.5,9.2,94,0.00,,,0.23,WUHU216HW,2013-01-30 17:43:00,
2013-01-30 12:48:00,52.6,50.9,29.22,WSW,248,4.3,6.3,94,0.00,,,0.23,WUHU216HW,2013-01-30 17:48:00,
2013-01-30 12:53:00,52.6,50.6,29.22,SSW,203,4.7,10.7,93,0.00,,,0.23,WUHU216HW,2013-01-30 17:53:00,
2013-01-30 12:58:00,52.4,50.4,29.20,SW,225,4.7,10.7,93,0.00,,,0.23,WUHU216HW,2013-01-30 17:58:00,
2013-01-30 13:03:00,52.4,50.4,29.19,SSW,203,4.3,6.9,93,0.00,,,0.23,WUHU216HW,2013-01-30 18:03:00,
2013-01-30 13:08:00,52.2,50.2,29.19,SW,225,5.1,6.7,93,0.00,,,0.23,WUHU216HW,2013-01-30 18:08:00,
2013-01-30 13:13:00,52.2,50.2,29.19,South,180,3.4,6.3,93,0.00,,,0.23,WUHU216HW,2013-01-30 18:13:00,
2013-01-30 13:18:00,52.2,50.2,29.20,SSW,203,4.0,5.6,93,0.00,,,0.23,WUHU216HW,2013-01-30 18:18:00,
2013-01-30 13:23:00,52.2,50.2,29.20,SSW,203,5.6,5.6,93,0.00,,,0.23,WUHU216HW,2013-01-30 18:23:00,
2013-01-30 13:28:00,52.2,49.9,29.21,SSE,158,4.0,8.3,92,0.00,,,0.23,WUHU216HW,2013-01-30 18:28:00,
2013-01-30 13:33:00,52.0,49.7,29.21,South,180,5.6,8.7,92,0.00,,,0.23,WUHU216HW,2013-01-30 18:33:00,
2013-01-30 13:38:00,51.8,49.5,29.21,SSW,203,6.9,8.7,92,0.00,,,0.23,WUHU216HW,2013-01-30 18:38:00,
2013-01-30 13:43:00,51.8,49.5,29.20,SSW,203,8.1,8.5,92,0.00,,,0.23,WUHU216HW,2013-01-30 18:43:00,
2013-01-30 13:48:00,51.7,49.3,29.21,SW,225,7.2,9.4,92,0.00,,,0.23,WUHU216HW,2013-01-30 18:48:00,
2013-01-30 13:53:00,51.7,49.3,29.21,SW,225,4.7,9.4,92,0.00,,,0.23,WUHU216HW,2013-01-30 18:53:00,
2013-01-30 13:58:00,51.5,49.1,29.21,SSW,203,6.9,7.6,92,0.00,,,0.23,WUHU216HW,2013-01-30 18:58:00,
2013-01-30 14:03:00,51.5,49.1,29.21,South,180,7.6,11.0,92,0.00,,,0.23,WUHU216HW,2013-01-30 19:03:00,
2013-01-30 14:08:00,51.3,49.0,29.21,South,180,7.8,11.0,92,0.00,,,0.23,WUHU216HW,2013-01-30 19:08:00,
2013-01-30 14:13:00,51.3,49.0,29.21,SW,225,5.8,8.5,92,0.00,,,0.23,WUHU216HW,2013-01-30 19:13:00,
2013-01-30 14:18:00,51.3,49.0,29.21,SSE,158,4.9,9.2,92,0.00,,,0.23,WUHU216HW,2013-01-30 19:18:00,
2013-01-30 14:23:00,51.1,48.8,29.20,SW,225,2.7,10.3,92,0.00,,,0.23,WUHU216HW,2013-01-30 19:23:00,
2013-01-30 14:28:00,51.1,48.8,29.18,SSW,203,5.8,10.3,92,0.00,,,0.23,WUHU216HW,2013-01-30 19:28:00,
2013-01-30 14:33:00,50.9,49.0,29.18,SW,225,5.4,6.5,93,0.00,,,0.23,WUHU216HW,2013-01-30 19:33:00,
2013-01-30 14:38:00,50.9,49.0,29.18,SSW,203,4.3,5.8,93,0.00,,,0.23,WUHU216HW,2013-01-30 19:38:00,
2013-01-30 14:43:00,50.8,48.8,29.18,SW,225,4.7,6.5,93,0.00,,,0.23,WUHU216HW,2013-01-30 19:43:00,
2013-01-30 14:48:00,50.8,48.8,29.18,SSW,203,7.2,7.2,93,0.00,,,0.23,WUHU216HW,2013-01-30 19:48:00,
2013-01-30 14:53:00,50.8,48.8,29.18,South,180,4.0,9.6,93,0.00,,,0.23,WUHU216HW,2013-01-30 19:53:00,
2013-01-30 14:58:00,50.8,48.8,29.17,SW,225,7.2,9.6,93,0.00,,,0.23,WUHU216HW,2013-01-30 19:58:00,
2013-01-30 15:03:00,50.8,48.8,29.18,South,180,6.5,9.8,93,0.00,,,0.23,WUHU216HW,2013-01-30 20:03:00,
2013-01-30 15:08:00,50.8,48.8,29.19,SW,225,5.6,9.8,93,0.00,,,0.23,WUHU216HW,2013-01-30 20:08:00,
2013-01-30 15:13:00,50.8,48.8,29.19,SSE,158,6.7,9.2,93,0.00,,,0.23,WUHU216HW,2013-01-30 20:13:00,
2013-01-30 15:18:00,50.8,48.8,29.18,South,180,5.4,7.6,93,0.00,,,0.23,WUHU216HW,2013-01-30 20:18:00,
2013-01-30 15:23:00,50.6,48.6,29.18,SSW,203,6.9,7.6,93,0.00,,,0.23,WUHU216HW,2013-01-30 20:23:00,
2013-01-30 15:28:00,50.6,48.6,29.16,SSW,203,2.5,7.6,93,0.00,,,0.23,WUHU216HW,2013-01-30 20:28:00,
2013-01-30 15:33:00,50.6,48.6,29.15,SSW,203,3.6,7.6,93,0.00,,,0.23,WUHU216HW,2013-01-30 20:33:00,
2013-01-30 15:38:00,50.6,48.6,29.13,SSW,203,5.1,6.9,93,0.00,,,0.23,WUHU216HW,2013-01-30 20:38:00,
2013-01-30 15:43:00,50.8,49.1,29.14,SSW,203,5.8,6.0,94,0.00,,,0.23,WUHU216HW,2013-01-30 20:43:00,
2013-01-30 15:48:00,50.8,49.1,29.15,South,180,5.8,6.7,94,0.00,,,0.23,WUHU216HW,2013-01-30 20:48:00,
2013-01-30 15:53:00,50.8,49.1,29.15,SSW,203,5.4,9.2,94,0.00,,,0.23,WUHU216HW,2013-01-30 20:53:00,
2013-01-30 15:58:00,50.8,49.1,29.15,SW,225,6.0,9.2,94,0.00,,,0.23,WUHU216HW,2013-01-30 20:58:00,
2013-01-30 16:03:00,50.6,48.9,29.16,SW,225,7.8,8.1,94,0.01,,,0.24,WUHU216HW,2013-01-30 21:03:00,
2013-01-30 16:08:00,50.6,48.9,29.17,WSW,248,9.2,9.2,94,0.01,,,0.24,WUHU216HW,2013-01-30 21:08:00,
2013-01-30 16:13:00,50.6,48.9,29.16,South,180,6.5,9.2,94,0.02,,,0.25,WUHU216HW,2013-01-30 21:13:00,
2013-01-30 16:18:00,50.6,48.9,29.16,SW,225,5.6,9.8,94,0.02,,,0.25,WUHU216HW,2013-01-30 21:18:00,
2013-01-30 16:23:00,50.4,48.7,29.16,SW,225,9.4,10.1,94,0.02,,,0.25,WUHU216HW,2013-01-30 21:23:00,
2013-01-30 16:28:00,50.4,48.7,29.16,SSW,203,6.9,10.5,94,0.02,,,0.25,WUHU216HW,2013-01-30 21:28:00,
2013-01-30 16:33:00,50.4,48.7,29.16,South,180,4.7,10.5,94,0.02,,,0.25,WUHU216HW,2013-01-30 21:33:00,
2013-01-30 16:38:00,50.4,48.7,29.15,South,180,4.3,6.9,94,0.02,,,0.25,WUHU216HW,2013-01-30 21:38:00,
2013-01-30 16:43:00,50.4,48.4,29.14,SW,225,5.4,7.8,93,0.02,,,0.25,WUHU216HW,2013-01-30 21:43:00,
2013-01-30 16:48:00,50.2,48.3,29.15,SSW,203,4.7,8.1,93,0.02,,,0.25,WUHU216HW,2013-01-30 21:48:00,
2013-01-30 16:53:00,50.2,48.3,29.15,SSW,203,4.5,8.1,93,0.02,,,0.25,WUHU216HW,2013-01-30 21:53:00,
2013-01-30 16:58:00,50.0,48.1,29.15,South,180,6.0,6.9,93,0.02,,,0.25,WUHU216HW,2013-01-30 21:58:00,
2013-01-30 17:03:00,50.0,48.1,29.14,SSE,158,4.9,6.9,93,0.01,,,0.25,WUHU216HW,2013-01-30 22:03:00,
2013-01-30 17:08:00,50.0,48.1,29.14,SSE,158,4.3,7.4,93,0.00,,,0.25,WUHU216HW,2013-01-30 22:08:00,
2013-01-30 17:13:00,49.9,47.9,29.13,SSW,203,4.0,7.4,93,0.00,,,0.25,WUHU216HW,2013-01-30 22:13:00,
2013-01-30 17:18:00,49.9,47.6,29.13,SSE,158,7.4,8.3,92,0.00,,,0.25,WUHU216HW,2013-01-30 22:18:00,
2013-01-30 17:23:00,49.9,47.6,29.12,SSW,203,4.7,8.3,92,0.00,,,0.25,WUHU216HW,2013-01-30 22:23:00,
2013-01-30 17:28:00,49.9,47.6,29.11,SSW,203,6.3,7.4,92,0.00,,,0.25,WUHU216HW,2013-01-30 22:28:00,
2013-01-30 17:33:00,49.7,47.4,29.11,SSE,158,4.5,7.4,92,0.00,,,0.25,WUHU216HW,2013-01-30 22:33:00,
2013-01-30 17:38:00,49.5,47.3,29.12,SSW,203,4.9,7.8,92,0.00,,,0.25,WUHU216HW,2013-01-30 22:38:00,
2013-01-30 17:43:00,49.5,47.3,29.12,South,180,6.0,7.8,92,0.00,,,0.25,WUHU216HW,2013-01-30 22:43:00,
2013-01-30 17:48:00,49.5,47.3,29.11,SSE,158,8.3,10.5,92,0.00,,,0.25,WUHU216HW,2013-01-30 22:48:00,
2013-01-30 17:53:00,49.5,47.3,29.11,South,180,8.5,10.5,92,0.00,,,0.25,WUHU216HW,2013-01-30 22:53:00,
2013-01-30 17:58:00,49.5,47.3,29.11,SSW,203,6.7,9.4,92,0.00,,,0.25,WUHU216HW,2013-01-30 22:58:00,
2013-01-30 18:03:00,49.5,47.3,29.11,SSW,203,4.9,9.4,92,0.00,,,0.25,WUHU216HW,2013-01-30 23:03:00,
2013-01-30 18:08:00,49.3,47.1,29.13,WNW,293,10.1,10.1,92,0.00,,,0.25,WUHU216HW,2013-01-30 23:08:00,
2013-01-30 18:13:00,49.0,45.9,29.13,West,270,13.9,14.5,89,0.00,,,0.25,WUHU216HW,2013-01-30 23:13:00,
2013-01-30 18:18:00,48.2,44.9,29.14,WNW,293,7.4,19.0,88,0.01,,,0.26,WUHU216HW,2013-01-30 23:18:00,
2013-01-30 18:23:00,47.5,44.5,29.14,West,270,9.4,19.0,89,0.02,,,0.28,WUHU216HW,2013-01-30 23:23:00,
2013-01-30 18:28:00,46.8,43.5,29.14,SW,225,9.2,12.3,88,0.05,,,0.30,WUHU216HW,2013-01-30 23:28:00,
2013-01-30 18:34:00,46.1,42.8,29.13,SW,225,8.1,13.4,88,0.07,,,0.32,WUHU216HW,2013-01-30 23:34:00,
2013-01-30 18:39:00,45.7,42.4,29.13,West,270,8.5,13.4,88,0.08,,,0.33,WUHU216HW,2013-01-30 23:39:00,
2013-01-30 18:43:00,45.2,42.2,29.14,WSW,248,6.3,12.3,89,0.09,,,0.35,WUHU216HW,2013-01-30 23:43:00,
2013-01-30 18:49:00,45.0,42.3,29.15,SW,225,6.5,12.1,90,0.09,,,0.35,WUHU216HW,2013-01-30 23:49:00,
2013-01-30 18:53:00,44.6,41.9,29.14,South,180,3.1,9.8,90,0.09,,,0.35,WUHU216HW,2013-01-30 23:53:00,
2013-01-30 18:58:00,44.5,41.8,29.14,SW,225,11.0,13.4,90,0.10,,,0.35,WUHU216HW,2013-01-30 23:58:00,
2013-01-30 19:03:00,44.3,41.6,29.14,SW,225,6.9,13.4,90,0.12,,,0.37,WUHU216HW,2013-01-31 00:03:00,
2013-01-30 19:09:00,44.1,41.4,29.13,WSW,248,4.5,14.5,90,0.14,,,0.40,WUHU216HW,2013-01-31 00:09:00,
2013-01-30 19:14:00,43.9,41.2,29.13,SW,225,5.1,14.5,90,0.14,,,0.40,WUHU216HW,2013-01-31 00:14:00,
2013-01-30 19:19:00,43.6,40.9,29.13,WSW,248,6.5,9.6,90,0.14,,,0.41,WUHU216HW,2013-01-31 00:19:00,
2013-01-30 19:24:00,43.6,40.9,29.14,WSW,248,7.4,9.6,90,0.13,,,0.41,WUHU216HW,2013-01-31 00:24:00,
2013-01-30 19:29:00,43.4,40.7,29.13,SW,225,5.6,11.6,90,0.09,,,0.41,WUHU216HW,2013-01-31 00:29:00,
2013-01-30 19:34:00,43.2,40.5,29.12,SW,225,6.9,11.6,90,0.07,,,0.41,WUHU216HW,2013-01-31 00:34:00,
2013-01-30 19:39:00,43.0,40.3,29.12,SW,225,5.1,8.7,90,0.06,,,0.41,WUHU216HW,2013-01-31 00:39:00,
2013-01-30 19:43:00,42.8,40.1,29.12,WSW,248,7.6,9.4,90,0.06,,,0.41,WUHU216HW,2013-01-31 00:43:00,
2013-01-30 19:48:00,42.8,40.1,29.13,SW,225,10.7,10.7,90,0.06,,,0.41,WUHU216HW,2013-01-31 00:48:00,
2013-01-30 19:54:00,42.7,40.2,29.13,SSW,203,6.7,12.5,91,0.06,,,0.41,WUHU216HW,2013-01-31 00:54:00,
2013-01-30 19:58:00,42.7,40.2,29.13,South,180,7.6,12.5,91,0.05,,,0.42,WUHU216HW,2013-01-31 00:58:00,
2013-01-30 20:03:00,42.5,39.8,29.14,SW,225,14.1,14.8,90,0.04,,,0.42,WUHU216HW,2013-01-31 01:03:00,
2013-01-30 20:08:00,42.1,39.4,29.14,SW,225,13.2,16.3,90,0.03,,,0.43,WUHU216HW,2013-01-31 01:08:00,
2013-01-30 20:14:00,41.8,38.8,29.14,SW,225,7.6,18.6,89,0.03,,,0.44,WUHU216HW,2013-01-31 01:14:00,
2013-01-30 20:19:00,41.4,38.7,29.14,SW,225,9.8,18.6,90,0.04,,,0.44,WUHU216HW,2013-01-31 01:19:00,
2013-01-30 20:24:00,41.0,38.3,29.14,SSW,203,11.0,13.4,90,0.05,,,0.46,WUHU216HW,2013-01-31 01:24:00,
2013-01-30 20:29:00,40.7,38.0,29.13,SSW,203,6.9,14.3,90,0.05,,,0.46,WUHU216HW,2013-01-31 01:29:00,
2013-01-30 20:34:00,40.5,37.8,29.14,SW,225,7.4,15.0,90,0.06,,,0.47,WUHU216HW,2013-01-31 01:34:00,
2013-01-30 20:39:00,40.1,37.4,29.14,SW,225,9.2,15.0,90,0.06,,,0.47,WUHU216HW,2013-01-31 01:39:00,
2013-01-30 20:44:00,40.0,37.3,29.14,WSW,248,8.7,13.0,90,0.06,,,0.47,WUHU216HW,2013-01-31 01:44:00,
2013-01-30 20:49:00,39.8,37.4,29.13,SW,225,10.5,13.9,91,0.06,,,0.47,WUHU216HW,2013-01-31 01:49:00,
2013-01-30 20:54:00,39.6,37.2,29.13,WSW,248,7.8,13.9,91,0.06,,,0.47,WUHU216HW,2013-01-31 01:54:00,
2013-01-30 20:59:00,39.6,37.2,29.13,WSW,248,8.9,11.0,91,0.05,,,0.47,WUHU216HW,2013-01-31 01:59:00,
2013-01-30 21:04:00,39.4,37.0,29.14,SW,225,7.2,11.9,91,0.05,,,0.47,WUHU216HW,2013-01-31 02:04:00,
2013-01-30 21:09:00,39.2,36.8,29.13,West,270,10.3,13.2,91,0.03,,,0.47,WUHU216HW,2013-01-31 02:09:00,
2013-01-30 21:14:00,39.1,36.6,29.14,SW,225,4.7,13.2,91,0.03,,,0.47,WUHU216HW,2013-01-31 02:14:00,
2013-01-30 21:19:00,38.9,36.5,29.14,SSW,203,6.3,11.2,91,0.02,,,0.47,WUHU216HW,2013-01-31 02:19:00,
2013-01-30 21:24:00,38.9,36.2,29.14,SW,225,7.8,12.3,90,0.01,,,0.47,WUHU216HW,2013-01-31 02:24:00,
2013-01-30 21:29:00,38.5,35.8,29.14,West,270,3.6,12.3,90,0.00,,,0.47,WUHU216HW,2013-01-31 02:29:00,
2013-01-30 21:34:00,38.5,35.8,29.14,SW,225,6.3,8.7,90,0.00,,,0.47,WUHU216HW,2013-01-31 02:34:00,
2013-01-30 21:39:00,38.3,35.6,29.14,SSW,203,6.3,9.8,90,0.00,,,0.47,WUHU216HW,2013-01-31 02:39:00,
2013-01-30 21:44:00,38.2,35.5,29.14,WSW,248,8.9,10.5,90,0.00,,,0.47,WUHU216HW,2013-01-31 02:44:00,
2013-01-30 21:49:00,38.0,35.3,29.14,WSW,248,7.2,10.5,90,0.00,,,0.47,WUHU216HW,2013-01-31 02:49:00,
2013-01-30 21:54:00,38.0,35.3,29.14,WSW,248,8.5,12.8,90,0.00,,,0.47,WUHU216HW,2013-01-31 02:54:00,
2013-01-30 21:59:00,37.8,35.1,29.14,SW,225,11.4,13.4,90,0.00,,,0.47,WUHU216HW,2013-01-31 02:59:00,
2013-01-30 22:04:00,37.8,35.1,29.14,WSW,248,9.2,13.4,90,0.00,,,0.47,WUHU216HW,2013-01-31 03:04:00,
2013-01-30 22:09:00,37.6,35.2,29.14,West,270,7.2,12.8,91,0.00,,,0.47,WUHU216HW,2013-01-31 03:09:00,
2013-01-30 22:14:00,37.3,34.6,29.16,NW,315,6.9,12.8,90,0.00,,,0.47,WUHU216HW,2013-01-31 03:14:00,
2013-01-30 22:19:00,36.7,34.0,29.16,WSW,248,6.9,22.1,90,0.01,,,0.48,WUHU216HW,2013-01-31 03:19:00,
2013-01-30 22:24:00,36.2,33.5,29.17,West,270,11.0,22.1,90,0.01,,,0.48,WUHU216HW,2013-01-31 03:24:00,
2013-01-30 22:29:00,35.8,33.1,29.17,SW,225,6.0,13.4,90,0.01,,,0.48,WUHU216HW,2013-01-31 03:29:00,
2013-01-30 22:34:00,35.6,32.9,29.18,West,270,13.4,16.3,90,0.01,,,0.48,WUHU216HW,2013-01-31 03:34:00,
2013-01-30 22:39:00,35.3,32.6,29.18,West,270,10.3,20.1,90,0.01,,,0.48,WUHU216HW,2013-01-31 03:39:00,
2013-01-30 22:44:00,34.9,32.2,29.18,WNW,293,9.6,20.1,90,0.01,,,0.48,WUHU216HW,2013-01-31 03:44:00,
2013-01-30 22:49:00,34.6,31.6,29.19,WSW,248,9.4,14.8,89,0.01,,,0.48,WUHU216HW,2013-01-31 03:49:00,
2013-01-30 22:54:00,34.4,31.4,29.19,WSW,248,9.2,14.1,89,0.01,,,0.48,WUHU216HW,2013-01-31 03:54:00,
2013-01-30 22:59:00,34.0,31.3,29.19,WSW,248,6.5,14.1,90,0.01,,,0.48,WUHU216HW,2013-01-31 03:59:00,
2013-01-30 23:04:00,33.8,31.1,29.20,West,270,16.1,16.1,90,0.01,,,0.48,WUHU216HW,2013-01-31 04:04:00,
2013-01-30 23:09:00,33.7,31.0,29.21,WNW,293,10.1,16.1,90,0.01,,,0.48,WUHU216HW,2013-01-31 04:09:00,
2013-01-30 23:14:00,33.5,30.8,29.21,WSW,248,11.2,15.4,90,0.00,,,0.48,WUHU216HW,2013-01-31 04:14:00,
2013-01-30 23:19:00,33.1,30.5,29.21,WNW,293,11.4,16.1,90,0.00,,,0.48,WUHU216HW,2013-01-31 04:19:00,
2013-01-30 23:24:00,32.9,30.3,29.22,NW,315,11.0,16.1,90,0.00,,,0.48,WUHU216HW,2013-01-31 04:24:00,
2013-01-30 23:29:00,32.8,30.2,29.22,NNW,338,6.9,14.3,90,0.00,,,0.48,WUHU216HW,2013-01-31 04:29:00,
2013-01-30 23:34:00,32.8,30.2,29.23,WNW,293,10.1,15.7,90,0.00,,,0.48,WUHU216HW,2013-01-31 04:34:00,
2013-01-30 23:39:00,32.6,30.0,29.23,WNW,293,10.5,16.3,90,0.00,,,0.48,WUHU216HW,2013-01-31 04:39:00,
2013-01-30 23:44:00,32.2,29.7,29.23,West,270,8.5,18.1,90,0.00,,,0.48,WUHU216HW,2013-01-31 04:44:00,
2013-01-30 23:49:00,32.0,29.3,29.24,West,270,16.3,19.9,89,0.00,,,0.48,WUHU216HW,2013-01-31 04:49:00,
2013-01-30 23:54:00,31.7,28.9,29.25,West,270,7.8,21.3,89,0.00,,,0.48,WUHU216HW,2013-01-31 04:54:00,
2013-01-30 23:59:00,31.5,28.7,29.25,WNW,293,8.5,21.3,89,0.00,,,0.48,WUHU216HW,2013-01-31 04:59:00,